Time;durP1;ratioP1;P1;durP2;ratioP2;P2;SDS_P1;SDS_P2;PMS_P1;PMS_P2;Temp;Humidity;BMP_temperature;BMP_pressure;BME280_temperature;BME280_humidity;BME280_pressure;Samples;Min_cycle;Max_cycle;Signal;HPM_P1;HPM_P2
2023/07/03 00:02:24;;;;;;;15.63;7.18;;;;;;;20.40;100.00;99827.19;5072537;28;20104;-72
2023/07/03 00:04:50;;;;;;;16.02;7.20;;;;;;;20.31;100.00;99827.31;5073019;28;20033;-72
2023/07/03 00:07:15;;;;;;;15.07;7.10;;;;;;;20.01;100.00;99790.13;5072827;28;20528;-75
2023/07/03 00:09:43;;;;;;;19.25;8.25;;;;;;;20.11;100.00;99811.84;5072484;28;20025;-74
2023/07/03 00:12:10;;;;;;;12.60;7.10;;;;;;;20.12;100.00;99822.31;5072190;28;20043;-74
2023/07/03 00:14:37;;;;;;;18.90;8.30;;;;;;;20.14;100.00;99836.25;5072752;28;20032;-74
2023/07/03 00:17:02;;;;;;;19.05;7.65;;;;;;;20.11;100.00;99828.44;5072312;28;20021;-71
2023/07/03 00:19:31;;;;;;;14.82;7.90;;;;;;;20.01;100.00;99839.91;5072698;28;20051;-72
2023/07/03 00:22:00;;;;;;;19.10;7.40;;;;;;;19.96;100.00;99833.88;5072458;28;20064;-74
2023/07/03 00:24:27;;;;;;;21.27;8.25;;;;;;;19.94;100.00;99851.34;5072434;28;20414;-72
2023/07/03 00:26:52;;;;;;;14.85;7.47;;;;;;;19.78;100.00;99851.50;5072186;28;20033;-72
2023/07/03 00:29:18;;;;;;;19.02;8.25;;;;;;;19.74;100.00;99844.56;5072475;28;20029;-74
2023/07/03 00:31:43;;;;;;;19.27;8.07;;;;;;;19.70;100.00;99833.25;5072004;28;20028;-70
2023/07/03 00:34:08;;;;;;;14.85;7.35;;;;;;;19.79;100.00;99841.88;5072328;28;20024;-70
2023/07/03 00:36:34;;;;;;;20.95;7.75;;;;;;;19.86;100.00;99849.69;5072279;28;20036;-71
2023/07/03 00:38:59;;;;;;;15.23;6.90;;;;;;;19.83;100.00;99839.25;5072065;28;20465;-71
2023/07/03 00:41:25;;;;;;;14.70;7.07;;;;;;;19.92;100.00;99848.75;5071832;28;20430;-72
2023/07/03 00:43:51;;;;;;;14.95;7.15;;;;;;;20.02;100.00;99860.00;5071551;28;20078;-75
2023/07/03 00:46:16;;;;;;;19.52;7.97;;;;;;;20.04;100.00;99847.75;5071551;28;20035;-74
2023/07/03 00:48:43;;;;;;;24.20;8.18;;;;;;;19.93;100.00;99839.16;5071848;28;20482;-71
2023/07/03 00:51:11;;;;;;;22.23;9.18;;;;;;;20.07;100.00;99847.69;5071858;28;20460;-74
2023/07/03 00:53:36;;;;;;;16.40;8.85;;;;;;;20.08;100.00;99851.19;5071942;28;20031;-72
2023/07/03 00:56:05;;;;;;;21.27;8.93;;;;;;;19.96;100.00;99850.47;5071894;28;20029;-71
2023/07/03 00:58:30;;;;;;;19.50;9.40;;;;;;;19.85;100.00;99849.69;5071489;28;20028;-73
2023/07/03 01:01:21;;;;;;;19.25;8.35;;;;;;;19.86;100.00;99844.47;5053655;28;20032;-75
2023/07/03 01:03:55;;;;;;;22.85;9.25;;;;;;;19.75;100.00;99821.84;5071285;28;20089;-74
2023/07/03 01:06:24;;;;;;;19.45;8.98;;;;;;;19.93;100.00;99852.25;5071718;28;20031;-71
2023/07/03 01:08:55;;;;;;;19.97;9.57;;;;;;;19.81;100.00;99850.59;5071385;28;20040;-73
2023/07/03 01:11:22;;;;;;;21.17;9.15;;;;;;;19.63;100.00;99820.25;5071357;28;20021;-72
2023/07/03 01:13:52;;;;;;;19.92;9.55;;;;;;;19.83;100.00;99852.34;5071402;28;20032;-72
2023/07/03 01:16:18;;;;;;;19.98;9.52;;;;;;;19.80;100.00;99852.34;5071304;28;20115;-73
2023/07/03 01:18:46;;;;;;;21.25;9.77;;;;;;;19.82;100.00;99857.56;5071471;28;20044;-73
2023/07/03 01:21:18;;;;;;;16.95;9.13;;;;;;;19.76;100.00;99847.16;5070553;28;20153;-73
2023/07/03 01:23:53;;;;;;;21.35;10.00;;;;;;;19.60;100.00;99830.72;5070835;28;20029;-70
2023/07/03 01:26:21;;;;;;;23.05;9.95;;;;;;;19.49;100.00;99825.59;5071730;28;20537;-71
2023/07/03 01:28:53;;;;;;;22.63;9.90;;;;;;;19.64;100.00;99864.75;5071330;28;20025;-71
2023/07/03 01:31:20;;;;;;;17.50;9.90;;;;;;;19.65;100.00;99868.22;5071330;28;20029;-70
2023/07/03 01:33:46;;;;;;;22.13;10.35;;;;;;;19.66;100.00;99868.19;5070911;28;20086;-71
2023/07/03 01:36:12;;;;;;;18.63;9.77;;;;;;;19.67;100.00;99863.84;5070928;28;20020;-70
2023/07/03 01:38:48;;;;;;;20.00;10.27;;;;;;;19.67;100.00;99869.06;5071002;28;20024;-75
2023/07/03 01:41:16;;;;;;;18.20;9.00;;;;;;;19.68;100.00;99881.28;5070887;28;20052;-70
2023/07/03 01:43:44;;;;;;;19.00;8.68;;;;;;;19.67;100.00;99876.94;5070793;28;20036;-74
2023/07/03 01:46:10;;;;;;;17.83;9.02;;;;;;;19.60;100.00;99877.88;5070250;28;20044;-69
2023/07/03 01:48:36;;;;;;;17.63;8.93;;;;;;;19.67;100.00;99884.78;5069809;28;20025;-72
2023/07/03 01:51:03;;;;;;;20.30;9.05;;;;;;;19.73;100.00;99882.97;5053056;28;20028;-74
2023/07/03 01:53:43;;;;;;;19.88;9.13;;;;;;;19.80;100.00;99880.28;5070897;28;20024;-71
2023/07/03 01:56:21;;;;;;;22.17;9.27;;;;;;;19.83;100.00;99883.78;5070495;28;20063;-73
2023/07/03 01:58:50;;;;;;;20.40;9.20;;;;;;;19.82;100.00;99884.63;5071148;28;20033;-71
2023/07/03 02:01:26;;;;;;;17.23;9.30;;;;;;;19.76;100.00;99878.59;5070368;28;20513;-74
2023/07/03 02:04:02;;;;;;;21.40;9.88;;;;;;;19.78;100.00;99887.31;5070750;28;20032;-71
2023/07/03 02:06:37;;;;;;;23.38;9.50;;;;;;;19.70;100.00;99884.75;5070573;28;20028;-73
2023/07/03 02:09:07;;;;;;;18.48;9.10;;;;;;;19.66;100.00;99883.03;5070966;28;20028;-73
2023/07/03 02:11:32;;;;;;;17.83;9.25;;;;;;;19.63;100.00;99890.94;5070147;28;20052;-73
2023/07/03 02:13:58;;;;;;;13.73;8.48;;;;;;;19.66;100.00;99872.56;5070564;28;20043;-73
2023/07/03 02:16:24;;;;;;;15.68;9.02;;;;;;;19.46;100.00;99860.53;5068221;28;20047;-71
2023/07/03 02:18:50;;;;;;;18.30;8.32;;;;;;;19.62;100.00;99897.06;5070592;28;20074;-70
2023/07/03 02:21:16;;;;;;;16.75;7.95;;;;;;;19.63;100.00;99898.81;5069583;28;20063;-73
2023/07/03 02:23:43;;;;;;;17.17;8.40;;;;;;;19.67;100.00;99901.34;5070534;28;20037;-75
2023/07/03 02:26:09;;;;;;;15.13;7.85;;;;;;;19.65;100.00;99887.44;5068931;28;20040;-71
2023/07/03 02:28:36;;;;;;;16.83;8.98;;;;;;;19.68;100.00;99902.25;5070121;28;20521;-72
2023/07/03 02:31:02;;;;;;;21.52;9.32;;;;;;;19.73;100.00;99901.28;5069623;28;20028;-72
2023/07/03 02:33:28;;;;;;;14.73;8.70;;;;;;;19.76;100.00;99903.00;5070327;28;20099;-73
2023/07/03 02:35:53;;;;;;;17.42;8.63;;;;;;;19.73;100.00;99903.06;5069959;28;20033;-73
2023/07/03 02:38:19;;;;;;;23.17;9.43;;;;;;;19.68;100.00;99908.34;5070169;28;20036;-72
2023/07/03 02:40:46;;;;;;;20.02;9.38;;;;;;;19.69;100.00;99904.84;5069592;28;20109;-72
2023/07/03 02:43:12;;;;;;;19.20;9.75;;;;;;;19.49;100.00;99868.38;5070415;28;20027;-72
2023/07/03 02:45:39;;;;;;;15.10;9.50;;;;;;;19.67;100.00;99910.97;5070363;28;20037;-72
2023/07/03 02:48:06;;;;;;;19.58;9.73;;;;;;;19.65;100.00;99918.84;5070194;28;20089;-74
2023/07/03 02:50:32;;;;;;;15.93;10.07;;;;;;;19.53;100.00;99904.09;5069578;28;20039;-73
2023/07/03 02:52:57;;;;;;;19.60;10.20;;;;;;;19.55;100.00;99897.13;5069945;28;20100;-74
2023/07/03 02:55:24;;;;;;;16.60;8.70;;;;;;;19.41;100.00;99872.81;5051967;28;20123;-71
2023/07/03 02:57:49;;;;;;;23.75;10.05;;;;;;;19.64;100.00;99913.59;5070122;28;20424;-74
2023/07/03 03:00:15;;;;;;;19.75;10.35;;;;;;;19.63;100.00;99904.03;5069815;28;20029;-74
2023/07/03 03:02:43;;;;;;;19.17;9.90;;;;;;;19.60;100.00;99893.56;5070014;28;20132;-74
2023/07/03 03:05:09;;;;;;;21.25;10.05;;;;;;;19.62;100.00;99902.28;5069909;28;20028;-72
2023/07/03 03:07:35;;;;;;;22.27;10.30;;;;;;;19.65;100.00;99912.72;5069324;28;20034;-72
2023/07/03 03:10:01;;;;;;;22.65;10.93;;;;;;;19.66;100.00;99923.19;5069253;28;20024;-72
2023/07/03 03:12:26;;;;;;;21.75;10.35;;;;;;;19.66;100.00;99923.19;5069263;28;20483;-71
2023/07/03 03:14:51;;;;;;;17.02;9.65;;;;;;;19.28;100.00;99855.47;5069500;28;20398;-76
2023/07/03 03:17:17;;;;;;;20.30;10.43;;;;;;;19.69;100.00;99930.16;5069489;28;20025;-72
2023/07/03 03:19:43;;;;;;;21.40;10.15;;;;;;;19.72;100.00;99922.25;5069515;28;20024;-71
2023/07/03 03:22:09;;;;;;;17.02;9.63;;;;;;;19.64;100.00;99921.47;5069745;28;20039;-79
2023/07/03 03:24:34;;;;;;;18.63;11.15;;;;;;;19.63;100.00;99922.38;5084586;28;20049;-71
2023/07/03 03:27:05;;;;;;;22.13;10.60;;;;;;;19.41;100.00;99885.88;5069790;28;20406;-70
2023/07/03 03:29:32;;;;;;;15.88;9.63;;;;;;;19.56;100.00;99918.91;5069657;28;20414;-72
2023/07/03 03:31:57;;;;;;;19.45;9.95;;;;;;;19.49;100.00;99922.47;5069416;28;20028;-72
2023/07/03 03:34:22;;;;;;;20.92;11.20;;;;;;;19.43;100.00;99926.03;5069943;28;20029;-72
2023/07/03 03:36:48;;;;;;;21.13;11.20;;;;;;;19.42;100.00;99928.66;5069458;28;20059;-74
2023/07/03 03:39:13;;;;;;;21.10;10.77;;;;;;;19.20;100.00;99890.44;5069899;28;20021;-76
2023/07/03 03:41:39;;;;;;;22.02;11.27;;;;;;;19.42;100.00;99931.28;5048060;28;20052;-75
2023/07/03 03:44:04;;;;;;;20.77;11.80;;;;;;;19.42;100.00;99928.66;5051419;28;20403;-74
2023/07/03 03:46:29;;;;;;;20.58;11.80;;;;;;;19.44;100.00;99932.09;5052437;28;20124;-73
2023/07/03 03:48:55;;;;;;;18.83;10.98;;;;;;;19.49;100.00;99936.44;5052842;28;20108;-73
2023/07/03 03:51:20;;;;;;;21.23;11.05;;;;;;;19.45;100.00;99926.00;5053002;28;20153;-76
2023/07/03 03:53:46;;;;;;;18.00;11.25;;;;;;;19.33;100.00;99899.03;5053026;28;20501;-71
2023/07/03 03:56:11;;;;;;;18.90;10.23;;;;;;;19.54;100.00;99931.16;5052977;28;20036;-70
2023/07/03 03:58:37;;;;;;;17.10;10.73;;;;;;;19.66;100.00;99933.66;5053109;28;20504;-74
2023/07/03 04:01:02;;;;;;;20.48;11.18;;;;;;;19.76;100.00;99941.44;5052467;28;20029;-70
2023/07/03 04:03:27;;;;;;;21.42;12.57;;;;;;;19.72;100.00;99941.47;5053025;28;20025;-71
2023/07/03 04:05:53;;;;;;;16.90;11.38;;;;;;;19.80;100.00;99946.66;5052283;28;20029;-72
2023/07/03 04:08:18;;;;;;;20.05;12.23;;;;;;;19.70;100.00;99931.88;5053051;28;20029;-74
2023/07/03 04:10:44;;;;;;;26.60;12.55;;;;;;;19.77;100.00;99948.44;5052713;28;20112;-72
2023/07/03 04:13:13;;;;;;;20.15;12.35;;;;;;;19.75;100.00;99943.22;5048126;28;20041;-74
2023/07/03 04:15:57;;;;;;;22.27;13.60;;;;;;;19.85;100.00;99955.34;5052675;28;20061;-71
2023/07/03 04:18:24;;;;;;;17.15;12.70;;;;;;;19.94;100.00;99953.50;5050663;28;20039;-74
2023/07/03 04:20:50;;;;;;;20.73;13.88;;;;;;;19.92;100.00;99952.69;5052022;28;20112;-78
2023/07/03 04:23:16;;;;;;;17.98;12.98;;;;;;;20.08;100.00;99962.13;5052347;28;20112;-74
2023/07/03 04:25:42;;;;;;;18.98;13.25;;;;;;;20.18;100.00;99955.88;5052635;28;20025;-74
2023/07/03 04:28:08;;;;;;;22.77;12.98;;;;;;;20.17;100.00;99959.38;5052209;28;20517;-74
2023/07/03 04:30:34;;;;;;;22.20;14.02;;;;;;;20.00;100.00;99922.00;5052285;28;20234;-72
2023/07/03 04:33:00;;;;;;;22.48;15.90;;;;;;;20.25;100.00;99953.19;5052349;28;20117;-72
2023/07/03 04:35:25;;;;;;;23.10;15.80;;;;;;;20.37;100.00;99968.78;5051791;28;20175;-74
2023/07/03 04:37:51;;;;;;;22.80;15.93;;;;;;;20.35;100.00;99952.22;5052311;28;20119;-71
2023/07/03 04:40:17;;;;;;;31.65;16.15;;;;;;;20.45;100.00;99964.34;5055821;28;20457;-75
2023/07/03 04:42:43;;;;;;;23.58;16.05;;;;;;;20.49;100.00;99966.03;5020194;28;20041;-71
2023/07/03 04:45:09;;;;;;;27.02;16.25;;;;;;;20.57;100.00;99976.41;5072212;28;20101;-78
2023/07/03 04:47:38;;;;;;;23.23;14.82;;;;;;;20.60;100.00;99968.53;5071722;28;20032;-72
2023/07/03 04:50:05;;;;;;;21.00;15.00;;;;;;;20.68;100.00;99971.03;5071626;28;20059;-73
2023/07/03 04:52:31;;;;;;;22.27;14.02;;;;;;;20.70;100.00;99979.78;5071819;28;20259;-72
2023/07/03 04:54:56;;;;;;;22.08;13.30;;;;;;;20.52;100.00;99981.75;5070999;28;20029;-73
2023/07/03 04:57:22;;;;;;;17.17;12.80;;;;;;;20.34;100.00;99947.88;5071506;28;20033;-71
2023/07/03 04:59:48;;;;;;;17.08;11.55;;;;;;;20.48;100.00;99980.00;5072024;28;20066;-71
2023/07/03 05:02:17;;;;;;;18.48;12.23;;;;;;;20.49;100.00;99976.50;5071191;28;20020;-71
2023/07/03 05:04:43;;;;;;;20.23;13.00;;;;;;;20.29;100.00;99944.44;5071859;28;20083;-70
2023/07/03 05:07:08;;;;;;;21.40;12.70;;;;;;;20.48;100.00;99976.53;5053868;28;20078;-76
2023/07/03 05:09:35;;;;;;;18.00;12.95;;;;;;;20.59;100.00;99979.91;5071401;28;20046;-74
2023/07/03 05:12:00;;;;;;;18.80;13.63;;;;;;;20.67;100.00;99980.69;5071662;28;20028;-72
2023/07/03 05:14:26;;;;;;;25.77;13.95;;;;;;;20.77;100.00;99978.84;5071372;28;20024;-77
2023/07/03 05:16:51;;;;;;;18.63;14.40;;;;;;;20.68;100.00;99944.81;5071484;28;20024;-73
2023/07/03 05:19:16;;;;;;;20.33;14.50;;;;;;;20.94;100.00;99977.75;5071178;28;20029;-72
2023/07/03 05:21:42;;;;;;;24.17;13.75;;;;;;;20.95;100.00;99969.00;5071381;28;20024;-70
2023/07/03 05:24:07;;;;;;;24.13;13.82;;;;;;;21.05;100.00;99983.72;5071484;28;20066;-73
2023/07/03 05:26:33;;;;;;;19.92;13.68;;;;;;;20.91;100.00;99946.28;5071322;28;20060;-73
2023/07/03 05:28:58;;;;;;;19.95;14.90;;;;;;;21.16;100.00;99976.53;5071252;28;20040;-72
2023/07/03 05:31:24;;;;;;;22.83;15.38;;;;;;;21.30;100.00;99986.84;5071002;28;20030;-71
2023/07/03 05:33:50;;;;;;;20.58;15.15;;;;;;;21.32;100.00;99979.81;5071131;28;20074;-76
2023/07/03 05:36:16;;;;;;;20.38;15.40;;;;;;;21.49;100.00;99987.41;5071062;28;20039;-73
2023/07/03 05:38:41;;;;;;;21.80;15.45;;;;;;;21.53;100.00;99979.50;5070996;28;20401;-71
2023/07/03 05:41:07;;;;;;;19.00;14.90;;;;;;;21.64;100.00;99988.09;5071153;28;20045;-75
2023/07/03 05:43:32;;;;;;;20.23;15.23;;;;;;;21.71;100.00;99992.38;5052828;28;20025;-73
2023/07/03 05:45:57;;;;;;;20.10;14.98;;;;;;;21.69;100.00;99981.00;5070639;28;20475;-72
2023/07/03 05:48:24;;;;;;;22.40;16.73;;;;;;;21.59;100.00;99958.41;5070603;28;20028;-72
2023/07/03 05:50:49;;;;;;;18.02;16.13;;;;;;;21.85;100.00;99989.50;5070903;28;20111;-78
2023/07/03 05:53:15;;;;;;;26.52;15.52;;;;;;;21.94;100.00;99989.34;5070822;28;20128;-77
2023/07/03 05:55:40;;;;;;;21.88;16.08;;;;;;;21.95;100.00;100000.72;5070635;28;20119;-71
2023/07/03 05:58:06;;;;;;;21.50;15.65;;;;;;;21.98;100.00;99998.03;5070765;28;20029;-74
2023/07/03 06:00:32;;;;;;;18.75;16.50;;;;;;;22.03;100.00;99997.94;5070906;28;20028;-73
2023/07/03 06:02:58;;;;;;;20.50;16.75;;;;;;;22.09;100.00;99988.22;5070504;28;20020;-72
2023/07/03 06:05:24;;;;;;;24.02;18.13;;;;;;;22.02;100.00;99975.19;5070578;28;20063;-75
2023/07/03 06:07:50;;;;;;;23.77;16.08;;;;;;;22.24;100.00;100001.94;5070177;28;20060;-72
2023/07/03 06:10:16;;;;;;;19.70;17.15;;;;;;;22.35;100.00;100007.00;5070382;28;20024;-75
2023/07/03 06:12:42;;;;;;;21.15;16.95;;;;;;;22.41;100.00;100001.66;5070413;28;20110;-71
2023/07/03 06:15:08;;;;;;;23.38;17.15;;;;;;;22.38;100.00;99984.19;5070861;28;20032;-74
2023/07/03 06:17:34;;;;;;;24.00;17.25;;;;;;;22.67;100.00;100016.03;5070541;28;20033;-73
2023/07/03 06:20:00;;;;;;;20.30;17.20;;;;;;;22.69;100.00;100017.78;5070473;28;20067;-71
2023/07/03 06:22:26;;;;;;;21.70;16.92;;;;;;;22.77;100.00;100007.94;5070321;28;20060;-71
2023/07/03 06:24:51;;;;;;;23.15;17.50;;;;;;;22.89;100.00;100008.56;5070197;28;20024;-72
2023/07/03 06:27:17;;;;;;;20.63;15.55;;;;;;;22.86;100.00;99998.97;5070569;28;20025;-74
2023/07/03 06:29:42;;;;;;;21.80;15.95;;;;;;;23.02;100.00;100011.84;5070075;28;20021;-74
2023/07/03 06:32:09;;;;;;;17.48;15.25;;;;;;;22.84;100.00;99981.50;5070222;28;20441;-73
2023/07/03 06:34:35;;;;;;;22.77;16.17;;;;;;;22.91;100.00;99981.31;5070471;28;20024;-70
2023/07/03 06:37:05;;;;;;;18.27;15.73;;;;;;;23.16;100.00;100014.19;5070152;28;20031;-70
2023/07/03 06:39:31;;;;;;;16.70;14.15;;;;;;;23.16;100.00;100008.91;5070072;28;20111;-74
2023/07/03 06:41:56;;;;;;;22.08;14.90;;;;;;;23.29;100.00;100013.00;5069990;28;20575;-71
2023/07/03 06:44:22;;;;;;;19.35;14.45;;;;;;;23.14;100.00;99985.22;5085401;28;20021;-72
2023/07/03 06:46:48;;;;;;;25.75;14.63;;;;;;;23.38;100.00;100018.06;5070082;28;20028;-71
2023/07/03 06:49:14;;;;;;;17.63;14.95;;;;;;;23.45;100.00;100023.19;5069641;28;20064;-74
2023/07/03 06:51:40;;;;;;;17.13;14.38;;;;;;;23.51;100.00;100026.53;5066784;28;20100;-76
2023/07/03 06:54:05;;;;;;;14.90;12.88;;;;;;;23.56;100.00;100031.69;5068709;28;20064;-74
2023/07/03 06:56:31;;;;;;;15.82;14.10;;;;;;;23.59;100.00;100029.00;5068648;28;20060;-72
2023/07/03 06:58:56;;;;;;;18.27;16.02;;;;;;;23.68;100.00;100027.91;5069704;28;20525;-74
2023/07/03 07:01:24;;;;;;;17.77;14.77;;;;;;;23.74;100.00;100031.25;5070181;28;20040;-74
2023/07/03 07:03:49;;;;;;;15.75;13.98;;;;;;;23.69;100.00;100008.53;5069896;28;20052;-73
2023/07/03 07:06:18;;;;;;;19.45;14.68;;;;;;;23.84;100.00;100034.53;5069903;28;20052;-75
2023/07/03 07:08:44;;;;;;;17.85;14.13;;;;;;;23.77;100.00;100008.38;5069831;28;20055;-73
2023/07/03 07:11:12;;;;;;;17.73;15.70;;;;;;;23.98;100.00;100026.28;5069870;28;20024;-72
2023/07/03 07:13:40;;;;;;;18.05;15.15;;;;;;;24.00;100.00;100040.31;5069291;28;20025;-74
2023/07/03 07:16:12;;;;;;;18.50;14.70;;;;;;;24.00;100.00;100032.41;5067742;28;20040;-75
2023/07/03 07:18:38;;;;;;;18.73;15.05;;;;;;;24.17;100.00;100036.38;5069827;28;20060;-74
2023/07/03 07:21:04;;;;;;;19.10;15.23;;;;;;;24.19;100.00;100037.22;5073229;28;20063;-73
2023/07/03 07:23:29;;;;;;;17.35;15.45;;;;;;;24.23;100.00;100047.63;5073052;28;20144;-73
2023/07/03 07:25:55;;;;;;;17.70;15.82;;;;;;;24.24;100.00;100030.03;5073385;28;20115;-71
2023/07/03 07:28:21;;;;;;;21.13;15.63;;;;;;;24.17;100.00;100018.75;5072407;28;20035;-74
2023/07/03 07:30:47;;;;;;;17.80;15.00;;;;;;;24.39;100.00;100041.94;5073663;28;20028;-73
2023/07/03 07:33:13;;;;;;;20.55;15.57;;;;;;;24.38;100.00;100043.69;5072683;28;20031;-75
2023/07/03 07:35:38;;;;;;;17.75;15.05;;;;;;;24.48;100.00;100041.69;5072646;28;20119;-77
2023/07/03 07:38:04;;;;;;;18.92;15.65;;;;;;;24.55;100.00;100045.03;5072396;28;20505;-75
2023/07/03 07:40:30;;;;;;;18.25;14.82;;;;;;;24.48;100.00;100011.81;5072383;28;20060;-74
2023/07/03 07:42:55;;;;;;;18.48;16.58;;;;;;;24.74;100.00;100049.81;5072233;28;20028;-76
2023/07/03 07:45:20;;;;;;;19.13;15.40;;;;;;;24.79;100.00;100040.84;5072593;28;20024;-72
2023/07/03 07:47:46;;;;;;;17.65;15.63;;;;;;;24.88;100.00;100039.72;5072584;28;20028;-72
2023/07/03 07:50:11;;;;;;;20.02;17.05;;;;;;;24.72;100.00;100012.88;5072624;28;20165;-73
2023/07/03 07:52:37;;;;;;;20.02;14.98;;;;;;;24.96;100.00;100045.66;5049035;28;20037;-73
2023/07/03 07:55:03;;;;;;;16.70;14.98;;;;;;;25.02;100.00;100048.13;5070665;28;20021;-73
2023/07/03 07:57:29;;;;;;;17.95;16.05;;;;;;;25.08;100.00;100039.13;5069623;28;20433;-72
2023/07/03 07:59:55;;;;;;;17.20;15.00;;;;;;;25.14;100.00;100040.72;5071273;28;20425;-70
2023/07/03 08:02:20;;;;;;;17.35;14.55;;;;;;;25.18;100.00;100031.78;5072104;28;20024;-70
2023/07/03 08:04:46;;;;;;;15.40;13.80;;;;;;;25.32;100.00;100053.38;5071375;28;20051;-74
2023/07/03 08:07:11;;;;;;;15.85;14.20;;;;;;;25.60;100.00;100056.97;5072109;28;20025;-71
2023/07/03 08:09:38;;;;;;;15.90;14.13;;;;;;;25.79;100.00;100054.56;5072107;28;20016;-74
2023/07/03 08:12:04;;;;;;;17.20;14.23;;;;;;;25.92;100.00;100068.25;5070846;28;20498;-74
2023/07/03 08:14:30;;;;;;;16.98;14.15;;;;;;;26.05;100.00;100059.00;5071921;28;20041;-70
2023/07/03 08:16:55;;;;;;;14.80;13.30;;;;;;;26.06;97.51;100062.56;5072240;28;20433;-70
2023/07/03 08:19:21;;;;;;;15.00;13.10;;;;;;;26.08;99.63;100050.13;5072086;28;20032;-75
2023/07/03 08:21:46;;;;;;;16.83;13.68;;;;;;;26.07;100.00;100048.38;5071879;28;20025;-74
2023/07/03 08:24:12;;;;;;;15.98;12.85;;;;;;;25.98;99.28;100061.00;5071855;28;20081;-74
2023/07/03 08:26:37;;;;;;;16.05;13.57;;;;;;;25.96;100.00;100054.03;5071323;28;20028;-74
2023/07/03 08:29:02;;;;;;;16.83;14.38;;;;;;;26.05;100.00;100068.72;5071715;28;20062;-69
2023/07/03 08:31:28;;;;;;;14.80;12.60;;;;;;;25.89;99.50;100039.28;5071805;28;20029;-75
2023/07/03 08:33:56;;;;;;;14.27;12.52;;;;;;;26.01;99.39;100041.50;5053833;28;20048;-70
2023/07/03 08:36:22;;;;;;;15.32;13.60;;;;;;;26.20;100.00;100060.28;5072490;28;20461;-74
2023/07/03 08:38:48;;;;;;;15.75;12.77;;;;;;;26.34;100.00;100062.44;5052608;28;20048;-75
2023/07/03 08:41:14;;;;;;;16.55;12.93;;;;;;;26.28;100.00;100052.94;5071251;28;20045;-76
2023/07/03 08:43:42;;;;;;;18.48;12.65;;;;;;;26.37;100.00;100056.16;5071917;28;20049;-74
2023/07/03 08:46:19;;;;;;;16.05;12.52;;;;;;;26.28;96.97;100020.31;5071766;28;20028;-71
2023/07/03 08:48:47;;;;;;;17.33;13.23;;;;;;;26.54;99.63;100060.88;5053747;28;20025;-74
2023/07/03 08:51:18;;;;;;;13.75;12.25;;;;;;;26.59;100.00;100062.44;5071680;28;20036;-74
2023/07/03 08:53:47;;;;;;;13.27;11.88;;;;;;;26.68;96.87;100060.38;5070617;28;20086;-70
2023/07/03 08:56:16;;;;;;;18.85;12.80;;;;;;;26.71;97.43;100042.59;5070968;28;20033;-73
2023/07/03 08:58:46;;;;;;;18.33;12.35;;;;;;;26.86;94.96;100057.06;5070723;28;20414;-73
2023/07/03 09:01:36;;;;;;;15.73;11.60;;;;;;;26.96;94.40;100066.41;5070868;28;20043;-73
2023/07/03 09:04:14;;;;;;;13.75;12.35;;;;;;;27.10;96.30;100060.59;5070577;28;20554;-71
2023/07/03 09:06:42;;;;;;;14.63;12.07;;;;;;;27.36;91.44;100055.19;5071145;28;20107;-70
2023/07/03 09:09:16;;;;;;;14.15;12.65;;;;;;;27.43;95.39;100049.63;5071120;28;20044;-72
2023/07/03 09:11:49;;;;;;;13.60;12.00;;;;;;;27.46;91.41;100047.78;5071574;28;20394;-72
2023/07/03 09:14:22;;;;;;;13.50;11.65;;;;;;;27.63;93.04;100050.59;5071413;28;20118;-74
2023/07/03 09:16:48;;;;;;;12.43;11.13;;;;;;;27.81;93.04;100050.78;5070889;28;20032;-70
2023/07/03 09:19:20;;;;;;;14.98;11.30;;;;;;;27.85;92.54;100039.97;5070753;28;20033;-73
2023/07/03 09:21:48;;;;;;;16.25;10.90;;;;;;;27.91;93.42;100047.69;5070816;28;20120;-73
2023/07/03 09:24:40;;;;;;;13.57;11.32;;;;;;;27.86;93.54;100015.16;5070805;28;20039;-73
2023/07/03 09:27:12;;;;;;;12.65;10.95;;;;;;;28.09;88.52;100045.22;5070247;28;20084;-73
2023/07/03 09:29:40;;;;;;;12.10;10.00;;;;;;;28.12;87.79;100047.72;5070721;28;20118;-71
2023/07/03 09:32:05;;;;;;;13.07;10.57;;;;;;;28.23;84.71;100040.16;5070611;28;20158;-71
2023/07/03 09:35:07;;;;;;;15.90;10.63;;;;;;;28.32;84.76;100040.69;5052280;28;20111;-71
2023/07/03 09:37:37;;;;;;;13.93;9.88;;;;;;;28.44;87.79;100039.25;5066307;28;20052;-74
2023/07/03 09:40:08;;;;;;;12.00;9.18;;;;;;;28.48;82.47;100040.88;5070645;28;20029;-73
2023/07/03 09:42:35;;;;;;;12.00;10.43;;;;;;;28.25;84.94;100018.84;5069709;28;20057;-73
2023/07/03 09:45:00;;;;;;;13.13;10.00;;;;;;;28.38;82.92;100043.91;5069997;28;20451;-72
2023/07/03 09:47:28;;;;;;;14.48;8.95;;;;;;;28.60;79.63;100042.09;5051322;28;20036;-70
2023/07/03 09:50:01;;;;;;;13.40;9.07;;;;;;;28.49;79.48;100003.63;5069728;28;20017;-71
2023/07/03 09:52:26;;;;;;;10.90;9.18;;;;;;;28.85;83.72;100034.78;5070076;28;20383;-72
2023/07/03 09:54:53;;;;;;;10.30;9.15;;;;;;;28.95;79.53;100027.25;5070332;28;20039;-75
2023/07/03 09:57:28;;;;;;;11.57;9.32;;;;;;;29.11;78.87;100022.06;5069935;28;20537;-71
2023/07/03 10:00:09;;;;;;;12.40;10.13;;;;;;;29.26;79.46;100014.28;5069860;28;20036;-74
2023/07/03 10:02:34;;;;;;;11.48;9.45;;;;;;;29.44;79.06;100021.41;5068674;28;20025;-76
2023/07/03 10:05:00;;;;;;;12.05;9.35;;;;;;;29.60;77.30;100023.31;5070492;28;20497;-76
2023/07/03 10:07:25;;;;;;;12.68;9.68;;;;;;;29.74;78.65;100023.47;5052120;28;20021;-75
2023/07/03 10:09:51;;;;;;;12.30;8.88;;;;;;;29.21;74.20;100001.22;5069493;28;20471;-73
2023/07/03 10:12:34;;;;;;;12.02;9.77;;;;;;;29.17;77.71;100024.44;5054438;28;20177;-73
2023/07/03 10:15:02;;;;;;;11.68;9.48;;;;;;;29.42;77.48;100025.91;5090107;28;20031;-71
2023/07/03 10:17:34;;;;;;;11.57;9.65;;;;;;;29.69;74.36;100023.69;5070819;28;20059;-72
2023/07/03 10:20:13;;;;;;;12.40;9.40;;;;;;;29.96;78.59;100022.44;5090078;28;20035;-71
2023/07/03 10:22:41;;;;;;;10.65;9.02;;;;;;;30.07;75.60;100009.44;5090091;28;20077;-70
2023/07/03 10:25:15;;;;;;;11.90;9.30;;;;;;;30.24;73.85;100013.84;5089543;28;20077;-73
2023/07/03 10:27:41;;;;;;;15.68;10.27;;;;;;;30.22;70.40;100015.75;5090244;28;20056;-73
2023/07/03 10:30:14;;;;;;;14.25;10.48;;;;;;;30.33;74.46;100007.19;5076174;28;20024;-74
2023/07/03 10:32:43;;;;;;;13.30;9.02;;;;;;;30.67;71.96;100010.75;5089929;28;20028;-75
2023/07/03 10:35:23;;;;;;;12.40;9.35;;;;;;;30.68;74.46;100019.59;5084424;28;20124;-73
2023/07/03 10:38:00;;;;;;;12.90;9.75;;;;;;;30.57;74.79;100005.06;5063657;28;20032;-71
2023/07/03 10:40:44;;;;;;;13.85;9.40;;;;;;;30.42;70.10;100001.38;5070630;28;20098;-70
2023/07/03 10:43:12;;;;;;;9.70;8.45;;;;;;;30.00;67.28;100005.38;5090247;28;20501;-70
2023/07/03 10:45:38;;;;;;;11.47;9.50;;;;;;;29.67;68.81;100006.97;5089075;28;20035;-76
2023/07/03 10:48:14;;;;;;;12.40;9.27;;;;;;;30.04;68.50;100012.22;5078278;28;20637;-72
2023/07/03 10:50:52;;;;;;;11.13;8.88;;;;;;;30.19;68.30;100007.91;5071468;28;20375;-70
2023/07/03 10:53:35;;;;;;;11.88;9.80;;;;;;;30.32;66.78;100002.81;5090277;28;20024;-72
2023/07/03 10:56:14;;;;;;;11.50;9.18;;;;;;;30.43;64.65;100005.78;5093487;28;20490;-71
2023/07/03 10:58:49;;;;;;;11.18;9.82;;;;;;;30.59;66.60;99970.34;5041812;28;20029;-73
2023/07/03 11:01:23;;;;;;;13.18;10.02;;;;;;;31.05;65.79;99997.09;5089379;28;20031;-73
2023/07/03 11:04:19;;;;;;;11.77;9.20;;;;;;;30.97;62.62;99999.34;5081153;28;20024;-71
2023/07/03 11:06:50;;;;;;;11.30;8.45;;;;;;;31.04;60.62;99995.41;5062080;28;20042;-71
2023/07/03 11:09:28;;;;;;;10.10;9.10;;;;;;;31.23;62.22;99989.03;5073384;28;20039;-79
2023/07/03 11:12:00;;;;;;;11.27;9.32;;;;;;;31.03;60.16;99977.66;5073165;28;20448;-69
2023/07/03 11:14:35;;;;;;;12.88;9.40;;;;;;;30.96;63.46;99958.47;5073066;28;20103;-73
2023/07/03 11:17:33;;;;;;;12.07;9.63;;;;;;;31.31;61.96;99981.44;5072689;28;20029;-71